Time;durP1;ratioP1;P1;durP2;ratioP2;P2;SDS_P1;SDS_P2;PMS_P1;PMS_P2;Temp;Humidity;BMP_temperature;BMP_pressure;BME280_temperature;BME280_humidity;BME280_pressure;Samples;Min_cycle;Max_cycle;Signal;HPM_P1;HPM_P2
2022/09/01 00:02:07;;;;;;;2.97;1.77;;;17.00;99.90;;;;;;5053044;28;20087;-69
2022/09/01 00:04:37;;;;;;;5.72;1.85;;;17.00;99.90;;;;;;5018656;28;20134;-69
2022/09/01 00:07:06;;;;;;;5.00;1.70;;;16.90;99.90;;;;;;5050009;28;20117;-69
2022/09/01 00:09:33;;;;;;;1.73;1.25;;;16.90;99.90;;;;;;5041837;28;20469;-69
2022/09/01 00:12:00;;;;;;;3.67;1.70;;;16.90;99.90;;;;;;5051545;28;20083;-69
2022/09/01 00:14:29;;;;;;;2.72;1.55;;;16.90;99.90;;;;;;5042300;28;20128;-70
2022/09/01 00:16:55;;;;;;;2.63;1.52;;;16.80;99.90;;;;;;5052636;28;20454;-69
2022/09/01 00:19:22;;;;;;;2.63;1.45;;;16.80;99.90;;;;;;5034950;28;20052;-69
2022/09/01 00:21:48;;;;;;;4.80;1.50;;;17.00;99.90;;;;;;5052953;28;20094;-69
2022/09/01 00:24:16;;;;;;;2.28;1.40;;;16.80;99.90;;;;;;5052692;28;20037;-69
2022/09/01 00:26:42;;;;;;;3.55;1.60;;;17.20;99.90;;;;;;5052774;28;20045;-70
2022/09/01 00:29:07;;;;;;;3.53;1.40;;;16.70;99.90;;;;;;5052944;28;20412;-69
2022/09/01 00:31:33;;;;;;;3.25;1.58;;;17.00;99.90;;;;;;5052612;28;20124;-69
2022/09/01 00:33:59;;;;;;;3.70;1.42;;;17.10;99.90;;;;;;5053118;28;20128;-69
2022/09/01 00:36:25;;;;;;;2.00;1.40;;;16.70;99.90;;;;;;5052329;28;20120;-69
2022/09/01 00:38:52;;;;;;;2.58;1.50;;;16.60;99.90;;;;;;5052091;28;20049;-69
2022/09/01 00:41:21;;;;;;;2.22;1.30;;;16.70;99.90;;;;;;5034361;28;20049;-69
2022/09/01 00:43:50;;;;;;;2.05;1.30;;;16.70;99.90;;;;;;5052271;28;20041;-70
2022/09/01 00:46:20;;;;;;;3.67;1.33;;;16.70;99.90;;;;;;5034036;28;20051;-69
2022/09/01 00:48:56;;;;;;;3.70;1.40;;;16.60;99.90;;;;;;5042336;28;20099;-69
2022/09/01 00:51:21;;;;;;;;;;;16.60;99.90;;;;;;5049760;28;20118;-69
2022/09/01 00:53:48;;;;;;;;;;;16.90;99.90;;;;;;5052864;28;20339;-69
2022/09/01 00:56:14;;;;;;;2.10;1.48;;;16.50;99.90;;;;;;5029023;28;19921;-69
2022/09/01 00:58:41;;;;;;;2.28;1.30;;;16.50;99.90;;;;;;5046595;28;20041;-69
2022/09/01 01:01:08;;;;;;;2.88;1.30;;;16.50;99.90;;;;;;5051775;28;20045;-69
2022/09/01 01:03:35;;;;;;;2.30;1.40;;;16.50;99.90;;;;;;5052050;28;20060;-69
2022/09/01 01:06:07;;;;;;;2.58;1.30;;;16.50;99.90;;;;;;5051739;28;20033;-70
2022/09/01 01:08:35;;;;;;;2.30;1.45;;;16.50;99.90;;;;;;5052186;28;20086;-69
2022/09/01 01:11:08;;;;;;;2.53;1.50;;;16.50;99.90;;;;;;5033362;28;20048;-70
2022/09/01 01:13:53;;;;;;;2.78;1.45;;;16.40;99.90;;;;;;5052028;28;20105;-69
2022/09/01 01:16:19;;;;;;;2.58;1.60;;;16.40;99.90;;;;;;5063006;28;20045;-69
2022/09/01 01:18:45;;;;;;;1.98;1.30;;;16.40;99.90;;;;;;5052040;28;20086;-69
2022/09/01 01:24:24;;;;;;;2.20;1.40;;;16.40;99.90;;;;;;5052355;28;20045;-69
2022/09/01 01:26:51;;;;;;;3.13;1.55;;;16.40;99.90;;;;;;5051839;28;20084;-69
2022/09/01 01:29:17;;;;;;;3.47;1.50;;;16.40;99.90;;;;;;5052189;28;20064;-69
2022/09/01 01:31:43;;;;;;;2.35;1.55;;;16.30;99.90;;;;;;5051495;28;20056;-69
2022/09/01 01:34:09;;;;;;;1.90;1.30;;;16.30;99.90;;;;;;5047669;28;20130;-69
2022/09/01 01:36:37;;;;;;;4.00;1.40;;;16.30;99.90;;;;;;5046490;28;20090;-69
2022/09/01 01:39:08;;;;;;;2.83;1.48;;;16.50;99.90;;;;;;5009307;28;20128;-69
2022/09/01 01:41:36;;;;;;;2.60;1.50;;;16.30;99.90;;;;;;5044291;28;20059;-69
2022/09/01 01:44:04;;;;;;;3.50;1.50;;;16.80;99.90;;;;;;5075448;28;20377;-69
2022/09/01 01:46:32;;;;;;;2.67;1.40;;;16.30;99.90;;;;;;5074494;28;20404;-69
2022/09/01 01:48:58;;;;;;;3.60;1.50;;;16.30;99.90;;;;;;5072135;28;20044;-69
2022/09/01 01:51:26;;;;;;;3.25;1.60;;;16.30;99.90;;;;;;5075645;28;20047;-69
2022/09/01 01:53:52;;;;;;;2.53;1.63;;;16.30;99.90;;;;;;5068189;28;20050;-69
2022/09/01 01:56:25;;;;;;;3.63;1.58;;;16.40;99.90;;;;;;5075521;28;20049;-69
2022/09/01 01:58:55;;;;;;;2.60;1.30;;;16.50;99.90;;;;;;5076197;28;20040;-69
2022/09/01 02:01:27;;;;;;;1.92;1.30;;;16.30;99.90;;;;;;5075588;28;20135;-69
2022/09/01 02:03:54;;;;;;;5.25;1.50;;;16.40;99.90;;;;;;5074383;28;20044;-69
2022/09/01 02:06:23;;;;;;;2.75;1.60;;;16.40;99.90;;;;;;5073387;28;20095;-69
2022/09/01 02:08:51;;;;;;;2.65;1.60;;;16.50;99.90;;;;;;5075438;28;20159;-69
2022/09/01 02:11:18;;;;;;;3.85;1.70;;;16.40;99.90;;;;;;5053194;28;20038;-69
2022/09/01 02:13:45;;;;;;;3.17;1.63;;;16.40;99.90;;;;;;5062611;28;20339;-69
2022/09/01 02:16:11;;;;;;;4.97;1.60;;;16.40;99.90;;;;;;5039742;28;20515;-69
2022/09/01 02:18:46;;;;;;;4.28;1.65;;;17.00;99.90;;;;;;5033536;28;20044;-69
2022/09/01 02:21:18;;;;;;;2.88;1.80;;;16.40;99.90;;;;;;5053841;28;20048;-69
2022/09/01 02:23:48;;;;;;;4.25;1.70;;;16.70;99.90;;;;;;5071951;28;20040;-69
2022/09/01 02:26:15;;;;;;;3.97;1.55;;;16.40;99.90;;;;;;5075146;28;20067;-69
2022/09/01 02:28:42;;;;;;;3.30;1.73;;;16.50;99.90;;;;;;5075290;28;20044;-69
2022/09/01 02:31:10;;;;;;;2.88;1.70;;;16.40;99.90;;;;;;5056776;28;20032;-69
2022/09/01 02:33:37;;;;;;;2.90;1.60;;;16.40;99.90;;;;;;5073415;28;20048;-69
2022/09/01 02:36:09;;;;;;;2.72;1.50;;;16.40;99.90;;;;;;5074459;28;20075;-69
2022/09/01 02:38:35;;;;;;;4.43;1.60;;;16.40;99.90;;;;;;5075034;28;20048;-69
2022/09/01 02:41:02;;;;;;;2.88;1.65;;;16.40;99.90;;;;;;5056891;28;20063;-69
2022/09/01 02:43:30;;;;;;;2.65;1.60;;;16.30;99.90;;;;;;5074465;28;20061;-69
2022/09/01 02:45:58;;;;;;;2.10;1.67;;;16.30;99.90;;;;;;5046256;28;20048;-70
2022/09/01 02:48:28;;;;;;;3.08;1.80;;;16.50;99.90;;;;;;5072646;28;20043;-69
2022/09/01 02:50:56;;;;;;;2.92;1.80;;;16.30;99.90;;;;;;5056468;28;20102;-69
2022/09/01 02:53:21;;;;;;;3.67;1.92;;;16.30;99.90;;;;;;5056893;28;20045;-70
2022/09/01 02:55:47;;;;;;;4.10;1.90;;;16.60;99.90;;;;;;5070385;28;20052;-69
2022/09/01 02:58:17;;;;;;;3.08;1.88;;;16.20;99.90;;;;;;5055606;28;20041;-69
2022/09/01 03:00:43;;;;;;;6.18;1.85;;;16.20;99.90;;;;;;5066407;28;20048;-71
2022/09/01 03:03:11;;;;;;;4.45;2.10;;;16.20;99.90;;;;;;5056429;28;20056;-69
2022/09/01 03:05:38;;;;;;;3.53;1.83;;;16.20;99.90;;;;;;5074548;28;20048;-69
2022/09/01 03:08:09;;;;;;;3.40;1.80;;;16.10;99.90;;;;;;5066142;28;20045;-69
2022/09/01 03:10:40;;;;;;;4.03;1.80;;;16.10;99.90;;;;;;5066107;28;20123;-69
2022/09/01 03:13:12;;;;;;;4.15;2.03;;;16.10;99.90;;;;;;5073622;28;20076;-69
2022/09/01 03:15:39;;;;;;;5.15;1.90;;;16.10;99.90;;;;;;5069100;28;20051;-69
2022/09/01 03:18:07;;;;;;;5.03;1.80;;;16.10;99.90;;;;;;5073754;28;20053;-70
2022/09/01 03:20:34;;;;;;;3.38;1.90;;;16.00;99.90;;;;;;5056257;28;20098;-69
2022/09/01 03:23:03;;;;;;;3.60;2.08;;;16.00;99.90;;;;;;5074253;28;20448;-69
2022/09/01 03:25:28;;;;;;;2.47;1.70;;;16.00;99.90;;;;;;5056267;28;20477;-69
2022/09/01 03:27:58;;;;;;;2.85;1.80;;;16.50;99.90;;;;;;5073783;28;20093;-69
2022/09/01 03:30:23;;;;;;;5.13;2.10;;;15.90;99.90;;;;;;5073909;28;20081;-69
2022/09/01 03:32:49;;;;;;;4.45;1.90;;;15.90;99.90;;;;;;5073815;28;20040;-69
2022/09/01 03:35:16;;;;;;;3.45;2.10;;;15.90;99.90;;;;;;5073967;28;20099;-69
2022/09/01 03:37:43;;;;;;;3.10;1.90;;;15.90;99.90;;;;;;5029653;28;20045;-69
2022/09/01 03:40:10;;;;;;;3.28;1.90;;;15.80;99.90;;;;;;5059596;28;20048;-69
2022/09/01 03:42:36;;;;;;;3.42;1.90;;;15.90;99.90;;;;;;5070840;28;20386;-69
2022/09/01 03:45:08;;;;;;;2.97;1.92;;;15.80;99.90;;;;;;5070802;28;20055;-69
2022/09/01 03:47:39;;;;;;;3.65;2.17;;;15.80;99.90;;;;;;5054593;28;20055;-69
2022/09/01 03:50:10;;;;;;;2.58;1.77;;;16.10;99.90;;;;;;5074145;28;20101;-69
2022/09/01 03:52:38;;;;;;;5.18;2.00;;;15.80;99.90;;;;;;5055693;28;20051;-69
2022/09/01 03:55:04;;;;;;;3.03;1.98;;;15.70;99.90;;;;;;5073413;28;20055;-69
2022/09/01 03:57:29;;;;;;;4.15;1.80;;;15.80;99.90;;;;;;5072984;28;20040;-69
2022/09/01 03:59:55;;;;;;;4.18;1.92;;;15.80;99.90;;;;;;5073061;28;20408;-69
2022/09/01 04:02:21;;;;;;;2.60;1.73;;;15.70;99.90;;;;;;5073063;28;20500;-69
2022/09/01 04:04:47;;;;;;;4.57;2.00;;;15.70;99.90;;;;;;5038717;28;20051;-69
2022/09/01 04:07:13;;;;;;;4.15;2.00;;;15.70;99.90;;;;;;5073218;28;20400;-69
2022/09/01 04:09:38;;;;;;;4.05;1.77;;;15.70;99.90;;;;;;5072407;28;20033;-69
2022/09/01 04:12:06;;;;;;;3.22;1.90;;;15.70;99.90;;;;;;5052379;28;20131;-69
2022/09/01 04:14:34;;;;;;;4.47;2.10;;;15.60;99.90;;;;;;5070797;28;20040;-69
2022/09/01 04:19:43;;;;;;;3.00;1.90;;;15.60;99.90;;;;;;5067820;28;20044;-69
2022/09/01 04:22:13;;;;;;;2.85;1.90;;;15.60;99.90;;;;;;5071964;28;20052;-69
2022/09/01 04:24:44;;;;;;;3.45;2.00;;;15.60;99.90;;;;;;5037851;28;20037;-69
2022/09/01 04:27:10;;;;;;;3.70;1.90;;;15.60;99.90;;;;;;5054933;28;20055;-69
2022/09/01 04:29:37;;;;;;;3.92;2.13;;;15.70;99.90;;;;;;5071254;28;20386;-69
2022/09/01 04:32:05;;;;;;;2.97;1.80;;;15.50;99.90;;;;;;5072473;28;20040;-69
2022/09/01 04:34:36;;;;;;;3.83;2.10;;;15.50;99.90;;;;;;5072726;28;20516;-69
2022/09/01 04:37:07;;;;;;;3.15;1.98;;;15.50;99.90;;;;;;5072576;28;20041;-69
2022/09/01 04:39:35;;;;;;;4.38;1.88;;;15.50;99.90;;;;;;5072407;28;20059;-69
2022/09/01 04:42:05;;;;;;;3.35;2.03;;;15.60;99.90;;;;;;5071847;28;20415;-69
2022/09/01 04:44:30;;;;;;;2.70;2.00;;;15.50;99.90;;;;;;5066058;28;20053;-69
2022/09/01 04:46:56;;;;;;;4.93;2.03;;;15.50;99.90;;;;;;5061288;28;20093;-69
2022/09/01 04:49:22;;;;;;;3.17;1.77;;;15.40;99.90;;;;;;5055222;28;20049;-69
2022/09/01 04:51:50;;;;;;;4.82;2.17;;;15.40;99.90;;;;;;5072241;28;20198;-70
2022/09/01 04:54:18;;;;;;;6.22;1.90;;;15.40;99.90;;;;;;5072775;28;20199;-70
2022/09/01 04:56:49;;;;;;;4.30;2.00;;;15.40;99.90;;;;;;5071729;28;20044;-70
2022/09/01 04:59:19;;;;;;;4.13;1.95;;;15.40;99.90;;;;;;5054498;28;20036;-70
2022/09/01 05:01:45;;;;;;;3.05;2.00;;;15.40;99.90;;;;;;5053622;28;20054;-70
2022/09/01 05:04:21;;;;;;;5.68;2.10;;;15.70;99.90;;;;;;5072629;28;20115;-71
2022/09/01 05:06:54;;;;;;;4.32;1.90;;;15.40;99.90;;;;;;5071652;28;20484;-71
2022/09/01 05:09:20;;;;;;;3.35;2.13;;;15.40;99.90;;;;;;5072326;28;20072;-70
2022/09/01 05:11:47;;;;;;;3.53;2.10;;;15.40;99.90;;;;;;5071786;28;20115;-70
2022/09/01 05:14:17;;;;;;;3.20;2.00;;;15.30;99.90;;;;;;5069251;28;20041;-70
2022/09/01 05:16:43;;;;;;;5.18;1.95;;;15.30;99.90;;;;;;5072345;28;20059;-70
2022/09/01 05:19:16;;;;;;;5.82;2.10;;;15.30;99.90;;;;;;5070478;28;20408;-71
2022/09/01 05:21:45;;;;;;;2.90;2.20;;;15.30;99.90;;;;;;5071201;28;20063;-70
2022/09/01 05:24:15;;;;;;;7.32;2.20;;;15.30;99.90;;;;;;5062661;28;20044;-70
2022/09/01 05:26:42;;;;;;;3.20;2.17;;;15.40;99.90;;;;;;5037474;28;20044;-71
2022/09/01 05:29:12;;;;;;;4.43;2.20;;;15.40;99.90;;;;;;5071710;28;20063;-70
2022/09/01 05:31:42;;;;;;;5.43;2.22;;;15.40;99.90;;;;;;5071626;28;20119;-70
2022/09/01 05:34:08;;;;;;;4.90;2.25;;;15.40;99.90;;;;;;5071619;28;20052;-70
2022/09/01 05:36:36;;;;;;;5.20;2.25;;;15.40;99.90;;;;;;5071409;28;20048;-70
2022/09/01 05:39:05;;;;;;;5.00;2.47;;;15.40;99.90;;;;;;5052096;28;20037;-71
2022/09/01 05:41:33;;;;;;;4.68;2.30;;;15.40;99.90;;;;;;5071452;28;20400;-71
2022/09/01 05:44:01;;;;;;;3.78;2.38;;;15.40;99.90;;;;;;5038582;28;20382;-71
2022/09/01 05:46:27;;;;;;;2.92;2.25;;;15.50;99.90;;;;;;5057456;28;20052;-70
2022/09/01 05:48:54;;;;;;;5.80;2.55;;;15.50;99.90;;;;;;5049596;28;20045;-70
2022/09/01 05:51:24;;;;;;;6.43;2.88;;;15.60;99.90;;;;;;5070363;28;20124;-70
2022/09/01 05:53:53;;;;;;;5.65;2.60;;;15.60;99.90;;;;;;5053817;28;20434;-70
2022/09/01 05:56:19;;;;;;;5.38;2.60;;;15.60;99.90;;;;;;5040122;28;20099;-70
2022/09/01 05:58:47;;;;;;;5.88;2.50;;;16.20;99.90;;;;;;5067360;28;20033;-70
2022/09/01 06:01:20;;;;;;;7.25;2.47;;;15.60;99.90;;;;;;5043365;28;20032;-70
2022/09/01 06:03:48;;;;;;;3.15;2.17;;;15.70;99.90;;;;;;5053402;28;20511;-70
2022/09/01 06:06:14;;;;;;;3.65;2.30;;;15.70;99.90;;;;;;5070209;28;20451;-71
2022/09/01 06:08:41;;;;;;;5.63;2.60;;;15.70;99.90;;;;;;5053263;28;20045;-70
2022/09/01 06:11:13;;;;;;;6.07;2.42;;;15.70;99.90;;;;;;5043576;28;20127;-70
2022/09/01 06:13:40;;;;;;;3.47;2.10;;;15.70;99.90;;;;;;5069922;28;20040;-70
2022/09/01 06:16:10;;;;;;;5.38;2.67;;;15.70;99.90;;;;;;5034758;28;20042;-70
2022/09/01 06:18:37;;;;;;;5.40;2.50;;;15.70;99.90;;;;;;5068892;28;20076;-70
2022/09/01 06:21:04;;;;;;;5.97;2.60;;;16.10;99.90;;;;;;5071400;28;20036;-70
2022/09/01 06:23:30;;;;;;;3.20;2.30;;;15.70;99.90;;;;;;5074164;28;20115;-71
2022/09/01 06:25:57;;;;;;;4.18;2.30;;;15.70;99.90;;;;;;5075203;28;20496;-71
2022/09/01 06:28:22;;;;;;;3.97;2.58;;;15.80;99.90;;;;;;5074657;28;20374;-70
2022/09/01 06:30:50;;;;;;;7.13;2.50;;;15.90;99.90;;;;;;5074522;28;20093;-70
2022/09/01 06:33:16;;;;;;;5.93;2.45;;;15.90;99.90;;;;;;5074454;28;20478;-70
2022/09/01 06:35:45;;;;;;;5.75;2.47;;;16.00;99.90;;;;;;5056088;28;20041;-70
2022/09/01 06:38:14;;;;;;;4.72;1.95;;;16.50;99.90;;;;;;5052828;28;20037;-70
2022/09/01 06:40:40;;;;;;;6.28;2.40;;;16.10;99.90;;;;;;5074947;28;20048;-71
2022/09/01 06:43:07;;;;;;;3.22;1.98;;;16.10;99.90;;;;;;5074205;28;20424;-70
2022/09/01 06:45:53;;;;;;;3.83;2.28;;;16.10;99.90;;;;;;5073714;28;20408;-71
2022/09/01 06:48:18;;;;;;;;;;;16.20;99.90;;;;;;5074824;28;20072;-70
2022/09/01 06:50:45;;;;;;;4.72;2.47;;;16.20;99.90;;;;;;5073677;28;20449;-70
2022/09/01 06:53:12;;;;;;;8.27;2.63;;;16.30;99.90;;;;;;5069131;28;20086;-70
2022/09/01 06:55:40;;;;;;;5.00;2.35;;;16.40;99.90;;;;;;5073979;28;20504;-69
2022/09/01 06:58:08;;;;;;;4.88;2.35;;;16.40;99.90;;;;;;5050662;28;20480;-70
2022/09/01 07:00:41;;;;;;;3.72;2.40;;;16.50;99.90;;;;;;5073819;28;20115;-70
2022/09/01 07:03:14;;;;;;;4.43;2.33;;;16.60;99.90;;;;;;5065919;28;20041;-70
2022/09/01 07:05:41;;;;;;;5.82;2.60;;;16.70;99.90;;;;;;5069972;28;20080;-70
2022/09/01 07:08:09;;;;;;;5.97;2.55;;;16.70;99.90;;;;;;5066900;28;20471;-70
2022/09/01 07:10:54;;;;;;;5.82;2.65;;;16.80;99.90;;;;;;5042827;28;20093;-70
2022/09/01 07:13:22;;;;;;;4.93;2.20;;;16.90;99.90;;;;;;5049412;28;20048;-70
2022/09/01 07:15:54;;;;;;;6.40;2.35;;;17.00;99.90;;;;;;5055826;28;20313;-70
2022/09/01 07:18:23;;;;;;;4.88;1.95;;;17.10;99.90;;;;;;5053433;28;20047;-70
2022/09/01 07:20:51;;;;;;;4.85;2.05;;;17.10;99.90;;;;;;5066961;28;20045;-70
2022/09/01 07:23:18;;;;;;;6.50;2.20;;;17.20;99.90;;;;;;5056259;28;20416;-70
2022/09/01 07:25:47;;;;;;;5.53;2.15;;;17.60;99.90;;;;;;5073783;28;20080;-70
2022/09/01 07:28:15;;;;;;;5.40;2.30;;;17.40;99.90;;;;;;5072460;28;20111;-70
2022/09/01 07:30:51;;;;;;;6.57;2.30;;;17.50;99.90;;;;;;5052884;28;20059;-70
2022/09/01 07:33:23;;;;;;;7.05;2.30;;;17.60;99.90;;;;;;5068414;28;20120;-70
2022/09/01 07:35:54;;;;;;;10.18;2.50;;;17.60;99.90;;;;;;5073915;28;20048;-70
2022/09/01 07:38:23;;;;;;;5.47;1.98;;;17.70;99.90;;;;;;5073573;28;20055;-71
2022/09/01 07:40:52;;;;;;;3.95;1.90;;;17.80;99.90;;;;;;5073766;28;20397;-70
2022/09/01 07:43:25;;;;;;;4.18;1.90;;;17.80;99.90;;;;;;5072906;28;20045;-70
2022/09/01 07:45:54;;;;;;;3.85;2.20;;;17.90;99.90;;;;;;5032042;28;20041;-70
2022/09/01 07:48:22;;;;;;;4.78;1.98;;;17.90;99.90;;;;;;5064715;28;20047;-69
2022/09/01 07:50:51;;;;;;;6.65;2.10;;;18.10;99.90;;;;;;5054037;28;20055;-69
2022/09/01 07:53:21;;;;;;;5.95;2.05;;;18.20;99.90;;;;;;5072363;28;20049;-70
2022/09/01 07:55:50;;;;;;;4.82;1.83;;;18.40;99.90;;;;;;5054799;28;20048;-71
2022/09/01 07:58:18;;;;;;;3.47;1.70;;;18.60;99.90;;;;;;5070567;28;20094;-70
2022/09/01 08:00:46;;;;;;;7.10;1.90;;;18.70;99.90;;;;;;5065238;28;20055;-70
2022/09/01 08:03:17;;;;;;;4.20;1.92;;;19.00;99.90;;;;;;5035885;28;20041;-70
2022/09/01 08:05:43;;;;;;;3.60;1.60;;;19.10;99.90;;;;;;5032978;28;20132;-68
2022/09/01 08:08:09;;;;;;;2.75;1.40;;;19.30;99.90;;;;;;5040803;28;20045;-70
2022/09/01 08:10:44;;;;;;;5.72;1.90;;;19.30;99.90;;;;;;5070293;28;20037;-70
2022/09/01 08:13:10;;;;;;;2.75;1.50;;;19.50;99.90;;;;;;5036231;28;20338;-70
2022/09/01 08:15:38;;;;;;;3.50;1.75;;;19.70;99.90;;;;;;5071083;28;20064;-70
2022/09/01 08:18:04;;;;;;;4.25;1.90;;;19.80;99.90;;;;;;5057774;28;20492;-70
2022/09/01 08:20:33;;;;;;;3.10;1.80;;;19.80;99.90;;;;;;5036837;28;20053;-70
2022/09/01 08:23:00;;;;;;;3.17;1.80;;;19.80;99.90;;;;;;5054556;28;20032;-70
2022/09/01 08:25:25;;;;;;;3.05;1.60;;;19.80;99.90;;;;;;5070520;28;20075;-70
2022/09/01 08:27:51;;;;;;;3.08;1.80;;;19.90;99.90;;;;;;5065462;28;20497;-68
2022/09/01 08:30:17;;;;;;;5.18;1.70;;;19.90;99.90;;;;;;5054214;28;20040;-68
2022/09/01 08:32:43;;;;;;;4.88;1.90;;;19.80;99.90;;;;;;5053015;28;20032;-68
2022/09/01 08:35:10;;;;;;;6.10;1.80;;;19.80;99.90;;;;;;5037778;28;20554;-69
2022/09/01 08:37:36;;;;;;;4.18;1.70;;;20.00;99.90;;;;;;5072206;28;20041;-69
2022/09/01 08:40:04;;;;;;;4.80;1.60;;;20.20;99.90;;;;;;5072629;28;20083;-69
2022/09/01 08:43:02;;;;;;;4.85;1.73;;;20.40;99.90;;;;;;5070300;28;20083;-69
2022/09/01 08:45:46;;;;;;;4.00;1.60;;;20.60;99.90;;;;;;5054301;28;20064;-69
2022/09/01 08:48:18;;;;;;;3.30;1.42;;;20.90;99.90;;;;;;5034162;28;20040;-69
2022/09/01 08:50:49;;;;;;;2.25;1.45;;;21.20;99.90;;;;;;5052073;28;20044;-69
2022/09/01 08:53:35;;;;;;;3.00;1.60;;;21.40;99.90;;;;;;5038494;28;20050;-69
2022/09/01 08:56:01;;;;;;;2.35;1.40;;;21.60;99.90;;;;;;5043119;28;20044;-69
2022/09/01 08:58:30;;;;;;;2.60;1.48;;;21.70;99.90;;;;;;5034278;28;20045;-68
2022/09/01 09:01:01;;;;;;;7.97;1.40;;;21.90;99.90;;;;;;5051998;28;20132;-68
2022/09/01 09:03:53;;;;;;;3.78;1.40;;;22.10;99.90;;;;;;5063770;28;20044;-69
2022/09/01 09:07:09;;;;;;;3.33;1.40;;;22.30;99.90;;;;;;5052520;28;20045;-69
2022/09/01 09:10:06;;;;;;;3.35;1.40;;;22.50;99.90;;;;;;5038738;28;20048;-69
2022/09/01 09:12:50;;;;;;;2.35;1.30;;;22.70;99.90;;;;;;5061155;28;20373;-68
2022/09/01 09:15:37;;;;;;;2.20;1.30;;;22.90;99.90;;;;;;5066599;28;20484;-67
2022/09/01 09:18:33;;;;;;;2.40;1.48;;;23.20;99.90;;;;;;5055867;28;20037;-69
2022/09/01 09:21:14;;;;;;;4.18;1.30;;;23.50;99.90;;;;;;5030245;28;20045;-68
2022/09/01 09:23:44;;;;;;;5.13;1.48;;;23.70;99.90;;;;;;5052262;28;20048;-69
2022/09/01 09:26:09;;;;;;;3.63;1.50;;;23.90;99.90;;;;;;5063487;28;20382;-68
2022/09/01 09:28:38;;;;;;;6.93;1.35;;;24.10;99.90;;;;;;5062791;28;20036;-68
2022/09/01 09:31:24;;;;;;;2.47;1.30;;;24.40;99.90;;;;;;5067008;28;20045;-68
2022/09/01 09:33:50;;;;;;;2.13;1.25;;;24.70;99.90;;;;;;5051681;28;20048;-68
2022/09/01 09:36:19;;;;;;;2.45;1.20;;;25.00;99.80;;;;;;5065421;28;20125;-68
2022/09/01 09:38:45;;;;;;;4.55;1.40;;;25.30;99.00;;;;;;5051894;28;20037;-68
2022/09/01 09:41:19;;;;;;;2.92;1.25;;;25.50;98.50;;;;;;5057595;28;20040;-68
2022/09/01 09:43:58;;;;;;;2.60;1.50;;;25.80;98.00;;;;;;5053250;28;20049;-69
2022/09/01 09:46:30;;;;;;;7.68;1.45;;;26.10;97.90;;;;;;5013881;28;20041;-69
2022/09/01 09:49:22;;;;;;;3.80;1.27;;;26.50;97.10;;;;;;5014613;28;20057;-68
2022/09/01 09:51:57;;;;;;;2.25;1.10;;;26.80;97.00;;;;;;5031985;28;20421;-68
2022/09/01 09:54:25;;;;;;;;;;;27.10;95.80;;;;;;5047517;28;20065;-68
2022/09/01 09:57:13;;;;;;;2.65;1.20;;;27.30;94.80;;;;;;5048292;28;20245;-68
2022/09/01 09:59:48;;;;;;;3.35;1.40;;;27.40;94.70;;;;;;5070041;28;20451;-70
2022/09/01 10:02:33;;;;;;;5.60;1.42;;;27.50;94.30;;;;;;5037588;28;20057;-69
2022/09/01 10:05:01;;;;;;;;;;;27.70;94.00;;;;;;5055744;28;20033;-69
2022/09/01 10:07:34;;;;;;;4.07;1.38;;;27.80;94.30;;;;;;5043998;28;19975;-69
2022/09/01 10:10:06;;;;;;;2.53;1.25;;;28.20;93.70;;;;;;5049635;28;20060;-69
2022/09/01 10:12:32;;;;;;;3.08;1.42;;;28.40;93.20;;;;;;5055403;28;20088;-69
2022/09/01 10:15:03;;;;;;;1.92;1.20;;;28.50;92.80;;;;;;5054808;28;20037;-69
2022/09/01 10:17:42;;;;;;;4.32;1.40;;;28.60;92.20;;;;;;5054673;28;20045;-70
2022/09/01 10:20:17;;;;;;;12.10;2.75;;;28.50;92.10;;;;;;5074868;28;20702;-70
2022/09/01 10:22:42;;;;;;;;;;;28.40;92.60;;;;;;5052827;28;20044;-69
2022/09/01 10:25:16;;;;;;;3.58;1.65;;;28.40;93.10;;;;;;5055018;28;19920;-70
2022/09/01 10:27:46;;;;;;;2.65;1.20;;;28.60;91.20;;;;;;5056400;28;20421;-69
2022/09/01 10:30:17;;;;;;;7.15;1.88;;;28.50;90.70;;;;;;5060141;28;20048;-69
2022/09/01 10:32:57;;;;;;;3.13;1.30;;;28.40;90.70;;;;;;5046646;28;20045;-69
2022/09/01 10:35:25;;;;;;;2.83;1.20;;;28.20;90.70;;;;;;5054984;28;20072;-69
2022/09/01 10:37:52;;;;;;;3.40;1.48;;;28.30;90.50;;;;;;5054853;28;20501;-69
2022/09/01 10:40:31;;;;;;;2.85;1.48;;;28.40;90.40;;;;;;5054953;28;20045;-69
2022/09/01 10:42:59;;;;;;;5.85;2.33;;;28.60;90.50;;;;;;5054198;28;20061;-69
2022/09/01 10:45:30;;;;;;;4.97;2.22;;;28.90;90.50;;;;;;5052288;28;20040;-69
2022/09/01 10:48:18;;;;;;;4.07;1.35;;;29.50;90.10;;;;;;5054654;28;20409;-69
2022/09/01 10:50:45;;;;;;;2.78;1.30;;;29.70;87.20;;;;;;5054436;28;20080;-69
2022/09/01 10:53:34;;;;;;;3.78;1.55;;;29.30;86.10;;;;;;5054524;28;20404;-70
2022/09/01 10:55:59;;;;;;;3.55;1.40;;;28.80;86.00;;;;;;5054382;28;20542;-70
2022/09/01 10:58:45;;;;;;;3.83;1.20;;;28.20;86.10;;;;;;5056356;28;20036;-70
2022/09/01 11:01:10;;;;;;;;;;;27.80;86.60;;;;;;5074710;28;20037;-70
2022/09/01 11:03:47;;;;;;;3.08;1.60;;;27.40;87.60;;;;;;5059716;28;19931;-70
2022/09/01 11:06:39;;;;;;;4.07;1.30;;;27.00;87.40;;;;;;5054099;28;20041;-69
2022/09/01 11:09:14;;;;;;;3.25;1.30;;;26.80;87.80;;;;;;5054237;28;20075;-70
2022/09/01 11:11:44;;;;;;;;;;;26.50;88.30;;;;;;5054256;28;20111;-70
2022/09/01 11:14:19;;;;;;;2.95;1.20;;;26.40;88.90;;;;;;5056336;28;19920;-70
2022/09/01 11:17:15;;;;;;;2.47;1.13;;;26.60;89.90;;;;;;5073831;28;20040;-70
2022/09/01 11:19:46;;;;;;;3.30;1.08;;;26.80;88.30;;;;;;5034211;28;20080;-70
2022/09/01 11:22:32;;;;;;;2.78;1.17;;;27.10;86.30;;;;;;5046088;28;20045;-70
2022/09/01 11:25:35;;;;;;;3.28;1.25;;;27.30;84.10;;;;;;5074045;28;20044;-70
2022/09/01 11:28:01;;;;;;;3.03;1.27;;;27.60;84.40;;;;;;5071217;28;20059;-70
2022/09/01 11:30:30;;;;;;;2.20;1.10;;;27.90;84.40;;;;;;5055104;28;20511;-70
2022/09/01 11:33:21;;;;;;;3.50;1.38;;;28.10;84.10;;;;;;5063696;28;20091;-70
2022/09/01 11:35:56;;;;;;;3.22;1.30;;;28.00;84.70;;;;;;5053370;28;20051;-70
2022/09/01 11:38:22;;;;;;;2.50;1.40;;;27.70;84.10;;;;;;5069442;28;20041;-70
2022/09/01 11:40:55;;;;;;;4.85;1.42;;;27.50;84.20;;;;;;5053709;28;20087;-70
2022/09/01 11:43:22;;;;;;;4.45;1.52;;;27.50;83.40;;;;;;5033306;28;20502;-70
2022/09/01 11:46:09;;;;;;;3.70;1.67;;;27.20;83.00;;;;;;5015739;28;20092;-68
2022/09/01 11:48:35;;;;;;;2.70;1.25;;;26.90;83.50;;;;;;5033978;28;20038;-68
2022/09/01 11:51:02;;;;;;;2.83;1.30;;;26.50;82.90;;;;;;5033561;28;20126;-68
2022/09/01 11:53:28;;;;;;;3.92;1.50;;;26.20;84.10;;;;;;5015979;28;20042;-70
2022/09/01 11:56:09;;;;;;;3.22;1.30;;;26.00;84.30;;;;;;5033072;28;20080;-71
2022/09/01 11:58:38;;;;;;;4.50;1.60;;;26.00;84.80;;;;;;5033825;28;20443;-68
2022/09/01 12:01:11;;;;;;;4.60;1.33;;;26.20;84.20;;;;;;5052449;28;20497;-70
2022/09/01 12:03:37;;;;;;;5.57;1.60;;;26.20;84.10;;;;;;5049933;28;20401;-68
2022/09/01 12:06:07;;;;;;;3.03;1.23;;;26.60;84.90;;;;;;5051888;28;20447;-67
2022/09/01 12:08:36;;;;;;;3.17;1.23;;;27.20;83.10;;;;;;5037670;28;20128;-68
2022/09/01 12:11:11;;;;;;;6.35;1.33;;;27.20;82.40;;;;;;5053701;28;20064;-68
2022/09/01 12:13:38;;;;;;;2.88;1.45;;;27.10;82.60;;;;;;5038416;28;20048;-68
2022/09/01 12:16:07;;;;;;;3.42;1.48;;;28.50;82.30;;;;;;5052834;28;20041;-69
2022/09/01 12:18:39;;;;;;;2.83;1.20;;;31.10;81.00;;;;;;5051870;28;20029;-69
2022/09/01 12:21:09;;;;;;;1.90;1.00;;;33.50;77.50;;;;;;5049957;28;20080;-69
2022/09/01 12:23:41;;;;;;;2.33;1.33;;;35.10;73.90;;;;;;5052331;28;20108;-69
2022/09/01 12:26:28;;;;;;;2.10;1.17;;;34.90;71.40;;;;;;5041211;28;20044;-69
2022/09/01 12:28:55;;;;;;;4.40;1.25;;;33.30;70.20;;;;;;5052547;28;20033;-69
2022/09/01 12:31:23;;;;;;;1.52;1.08;;;31.80;71.30;;;;;;5057980;28;20068;-69
2022/09/01 12:33:51;;;;;;;4.57;1.27;;;30.80;71.90;;;;;;5054995;28;20405;-69
2022/09/01 12:36:20;;;;;;;2.15;1.30;;;29.90;73.10;;;;;;5050197;28;20110;-69
2022/09/01 12:38:47;;;;;;;4.10;1.52;;;29.20;73.20;;;;;;5065684;28;20098;-69
2022/09/01 12:41:35;;;;;;;2.75;1.27;;;28.50;74.10;;;;;;5051889;28;20078;-69
2022/09/01 12:44:30;;;;;;;3.83;1.38;;;28.10;74.40;;;;;;5063063;28;20088;-69
2022/09/01 12:46:57;;;;;;;1.60;1.17;;;27.60;75.00;;;;;;5051778;28;20126;-70
2022/09/01 12:49:25;;;;;;;3.03;1.30;;;27.30;75.50;;;;;;5051850;28;20033;-69
2022/09/01 12:52:35;;;;;;;3.40;1.10;;;27.20;76.10;;;;;;5056454;28;20044;-70
2022/09/01 12:55:01;;;;;;;4.40;1.30;;;27.10;76.00;;;;;;5052981;28;20500;-69
2022/09/01 12:57:33;;;;;;;2.13;1.20;;;27.00;75.70;;;;;;5056628;28;20045;-69
2022/09/01 13:00:18;;;;;;;2.05;1.10;;;27.10;76.30;;;;;;5070730;28;20539;-70
2022/09/01 13:02:56;;;;;;;2.45;1.20;;;27.20;75.50;;;;;;5071525;28;20146;-69
2022/09/01 13:05:36;;;;;;;2.17;1.10;;;27.30;75.30;;;;;;5072379;28;20123;-70
2022/09/01 13:08:13;;;;;;;2.58;1.25;;;27.20;74.90;;;;;;5068574;28;20056;-70
2022/09/01 13:10:42;;;;;;;4.25;1.10;;;27.30;74.60;;;;;;5051870;28;20052;-70
2022/09/01 13:13:09;;;;;;;2.20;1.10;;;27.50;75.90;;;;;;5051962;28;20076;-70